createdAt,value
2022-10-07T00:00:02.870Z,30.83
2022-10-07T00:03:04.443Z,28.20
2022-10-07T00:06:16.873Z,28.27
2022-10-07T00:09:18.419Z,29.23
2022-10-07T00:12:19.987Z,32.90
2022-10-07T00:15:23.615Z,31.30
2022-10-07T00:18:25.176Z,30.25
2022-10-07T00:21:27.804Z,31.45
2022-10-07T00:24:29.408Z,34.50
2022-10-07T00:27:30.980Z,32.53
2022-10-07T00:30:32.743Z,33.28
2022-10-07T00:33:36.589Z,33.28
2022-10-07T00:36:39.008Z,34.15
2022-10-07T00:39:40.605Z,33.20
2022-10-07T00:42:42.885Z,36.17
2022-10-07T00:45:44.507Z,33.38
2022-10-07T00:48:46.889Z,35.50
2022-10-07T00:51:50.578Z,33.88
2022-10-07T00:54:53.437Z,36.43
2022-10-07T00:57:55.433Z,35.23
2022-10-07T01:00:57.649Z,36.05
2022-10-07T01:03:59.306Z,36.35
2022-10-07T01:07:00.857Z,37.45
2022-10-07T01:10:02.503Z,36.33
2022-10-07T01:13:14.640Z,35.17
2022-10-07T01:16:19.352Z,36.30
2022-10-07T01:19:33.767Z,39.17
2022-10-07T01:23:03.190Z,34.97
2022-10-07T01:26:23.458Z,35.33
2022-10-07T01:29:39.908Z,38.63
2022-10-07T01:32:47.955Z,42.40
2022-10-07T01:35:50.321Z,39.00
2022-10-07T01:38:54.383Z,39.22
2022-10-07T01:41:55.953Z,38.40
2022-10-07T01:44:57.947Z,40.70
2022-10-07T01:47:59.508Z,39.95
2022-10-07T01:51:02.330Z,36.95
2022-10-07T01:54:24.755Z,38.30
2022-10-07T01:57:50.056Z,37.87
2022-10-07T02:01:06.358Z,36.60
2022-10-07T02:04:26.195Z,37.13
2022-10-07T02:07:43.120Z,39.75
2022-10-07T02:11:13.654Z,37.97
2022-10-07T02:14:16.572Z,38.77
2022-10-07T02:17:18.960Z,37.27
2022-10-07T02:20:21.550Z,43.92
2022-10-07T02:23:23.142Z,36.40
2022-10-07T02:26:24.975Z,37.90
2022-10-07T02:29:26.604Z,40.60
2022-10-07T02:32:28.173Z,40.57
2022-10-07T02:35:51.084Z,38.17
2022-10-07T02:38:52.652Z,39.15
2022-10-07T02:42:24.188Z,40.60
2022-10-07T02:45:41.538Z,40.80
2022-10-07T02:49:00.295Z,40.73
2022-10-07T02:52:05.475Z,38.50
2022-10-07T02:55:08.412Z,39.63
2022-10-07T02:58:10.027Z,38.50
2022-10-07T03:01:11.623Z,40.13
2022-10-07T03:04:13.507Z,38.73
2022-10-07T03:07:15.070Z,40.95
2022-10-07T03:10:16.732Z,40.80
2022-10-07T03:13:18.379Z,37.83
2022-10-07T03:16:20.032Z,39.97
2022-10-07T03:19:21.680Z,39.67
2022-10-07T03:22:23.267Z,41.90
2022-10-07T03:25:25.292Z,39.25
2022-10-07T03:28:29.086Z,39.60
2022-10-07T03:31:31.309Z,40.13
2022-10-07T03:34:33.043Z,40.57
2022-10-07T03:37:34.620Z,37.45
2022-10-07T03:40:37.097Z,41.25
2022-10-07T03:43:38.663Z,39.70
2022-10-07T03:46:40.667Z,40.47
2022-10-07T03:49:42.495Z,39.00
2022-10-07T03:52:45.722Z,44.55
2022-10-07T03:55:47.312Z,43.00
2022-10-07T03:58:48.947Z,40.63
2022-10-07T04:01:50.595Z,38.73
2022-10-07T04:04:52.801Z,39.70
2022-10-07T04:07:54.768Z,38.17
2022-10-07T04:10:57.290Z,39.10
2022-10-07T04:14:00.852Z,35.17
2022-10-07T04:17:02.465Z,37.30
2022-10-07T04:20:04.269Z,37.00
2022-10-07T04:23:05.898Z,36.15
2022-10-07T04:26:11.803Z,35.38
2022-10-07T04:29:13.383Z,36.08
2022-10-07T04:32:14.944Z,35.80
2022-10-07T04:35:17.556Z,41.67
2022-10-07T04:38:19.298Z,38.17
2022-10-07T04:41:20.895Z,38.75
2022-10-07T04:44:22.556Z,38.80
2022-10-07T04:47:24.139Z,41.83
2022-10-07T04:50:26.051Z,41.67
2022-10-07T04:53:27.635Z,36.17
2022-10-07T04:56:31.407Z,38.85
2022-10-07T04:59:34.401Z,37.10
2022-10-07T05:02:37.217Z,38.03
2022-10-07T05:05:44.385Z,33.90
2022-10-07T05:08:46.212Z,38.67
2022-10-07T05:11:49.060Z,36.83
2022-10-07T05:14:50.748Z,33.30
2022-10-07T05:17:54.142Z,37.10
2022-10-07T05:20:55.975Z,37.70
2022-10-07T05:23:58.987Z,35.50
2022-10-07T05:27:00.650Z,39.35
2022-10-07T05:30:02.273Z,38.42
2022-10-07T05:33:04.281Z,39.27
2022-10-07T05:36:07.009Z,38.03
2022-10-07T05:39:09.706Z,42.55
2022-10-07T05:42:13.699Z,41.83
2022-10-07T05:45:15.524Z,39.88
2022-10-07T05:48:17.666Z,40.00
2022-10-07T05:51:23.016Z,44.57
2022-10-07T05:54:24.769Z,40.55
2022-10-07T05:57:26.427Z,40.95
2022-10-07T06:00:28.538Z,34.63
2022-10-07T06:03:30.141Z,37.27
2022-10-07T06:06:31.727Z,38.90
2022-10-07T06:09:51.594Z,35.53
2022-10-07T06:13:08.450Z,35.95
2022-10-07T06:16:10.202Z,37.53
2022-10-07T06:19:22.623Z,33.73
2022-10-07T06:22:24.754Z,31.73
2022-10-07T06:25:26.363Z,35.90
2022-10-07T06:28:34.748Z,35.80
2022-10-07T06:31:36.576Z,33.83
2022-10-07T06:34:38.243Z,35.13
2022-10-07T06:37:39.878Z,34.70
2022-10-07T06:40:41.554Z,33.58
2022-10-07T06:43:43.190Z,35.38
2022-10-07T06:46:44.786Z,32.15
2022-10-07T06:49:46.497Z,32.97
2022-10-07T06:52:48.121Z,35.03
2022-10-07T06:55:54.670Z,33.00
2022-10-07T06:58:56.693Z,30.30
2022-10-07T07:01:59.376Z,31.17
2022-10-07T07:05:04.803Z,31.77
2022-10-07T07:08:06.527Z,33.47
2022-10-07T07:11:32.726Z,30.35
2022-10-07T07:14:36.735Z,28.55
2022-10-07T07:17:38.409Z,30.92
2022-10-07T07:20:40.007Z,30.60
2022-10-07T07:23:41.707Z,30.20
2022-10-07T07:26:43.522Z,31.88
2022-10-07T07:29:45.206Z,31.65
2022-10-07T07:32:46.826Z,28.42
2022-10-07T07:35:48.462Z,26.43
2022-10-07T07:38:57.578Z,27.30
2022-10-07T07:42:02.678Z,25.50
2022-10-07T07:45:04.686Z,25.95
2022-10-07T07:48:06.312Z,29.17
2022-10-07T07:51:08.138Z,24.63
2022-10-07T07:54:10.651Z,23.17
2022-10-07T07:57:16.764Z,23.63
2022-10-07T08:00:19.042Z,24.08
2022-10-07T08:03:20.743Z,22.63
2022-10-07T08:06:22.620Z,21.70
2022-10-07T08:09:24.649Z,20.33
2022-10-07T08:12:30.177Z,21.30
2022-10-07T08:15:32.030Z,16.80
2022-10-07T08:18:33.657Z,17.17
2022-10-07T08:21:35.422Z,18.17
2022-10-07T08:24:37.730Z,18.83
2022-10-07T08:27:42.236Z,16.52
2022-10-07T08:30:46.355Z,15.27
2022-10-07T08:33:48.778Z,14.88
2022-10-07T08:36:52.053Z,16.83
2022-10-07T08:39:53.767Z,15.93
2022-10-07T08:42:59.830Z,15.07
2022-10-07T08:46:01.887Z,15.77
2022-10-07T08:49:05.995Z,18.17
2022-10-07T08:52:29.077Z,14.57
2022-10-07T08:55:39.776Z,14.53
2022-10-07T08:58:56.862Z,15.20
2022-10-07T09:02:28.858Z,15.43
2022-10-07T09:05:34.192Z,15.43
2022-10-07T09:08:37.847Z,13.30
2022-10-07T09:11:40.454Z,13.20
2022-10-07T09:14:42.984Z,10.45
2022-10-07T09:17:51.000Z,13.13
2022-10-07T09:20:54.385Z,12.63
2022-10-07T09:23:56.806Z,13.73
2022-10-07T09:26:59.715Z,12.73
2022-10-07T09:30:01.305Z,13.20
2022-10-07T09:33:02.879Z,14.60
2022-10-07T09:36:09.275Z,14.75
2022-10-07T09:39:23.066Z,16.67
2022-10-07T09:42:39.649Z,13.77
2022-10-07T09:45:44.561Z,14.68
2022-10-07T09:48:52.948Z,17.50
2022-10-07T09:52:02.330Z,14.77
2022-10-07T09:55:37.519Z,14.53
2022-10-07T09:58:39.202Z,14.60
2022-10-07T10:01:41.932Z,16.33
2022-10-07T10:04:47.418Z,14.75
2022-10-07T10:07:49.130Z,14.07
2022-10-07T10:10:55.517Z,14.93
2022-10-07T10:13:57.110Z,16.37
2022-10-07T10:16:58.676Z,13.45
2022-10-07T10:20:33.024Z,14.80
2022-10-07T10:23:36.014Z,13.88
2022-10-07T10:26:58.742Z,25.43
2022-10-07T10:30:08.195Z,15.67
2022-10-07T10:33:20.292Z,12.68
2022-10-07T10:36:22.943Z,16.05
2022-10-07T10:39:37.226Z,13.15
2022-10-07T10:42:53.220Z,14.03
2022-10-07T10:46:05.155Z,17.13
2022-10-07T10:49:25.592Z,13.32
2022-10-07T10:52:45.868Z,11.60
2022-10-07T10:56:00.554Z,12.15
2022-10-07T10:59:15.628Z,13.77
2022-10-07T11:02:39.207Z,14.93
2022-10-07T11:05:42.634Z,11.60
2022-10-07T11:08:44.237Z,13.82
2022-10-07T11:11:48.946Z,13.90
2022-10-07T11:14:57.554Z,13.10
2022-10-07T11:18:27.232Z,13.13
2022-10-07T11:21:39.933Z,14.25
2022-10-07T11:24:44.307Z,13.35
2022-10-07T11:27:47.126Z,11.20
2022-10-07T11:31:18.417Z,12.67
2022-10-07T11:35:14.635Z,12.63
2022-10-07T11:38:20.533Z,13.82
2022-10-07T11:41:30.182Z,10.40
2022-10-07T11:44:43.405Z,11.60
2022-10-07T11:47:50.815Z,11.50
2022-10-07T11:50:56.055Z,13.47
2022-10-07T11:53:58.226Z,11.27
2022-10-07T11:57:00.669Z,13.10
2022-10-07T12:00:25.960Z,12.57
2022-10-07T12:03:36.505Z,10.40
2022-10-07T12:06:38.104Z,12.87
2022-10-07T12:09:55.867Z,9.95
2022-10-07T12:13:01.089Z,10.27
2022-10-07T12:16:31.526Z,11.90
2022-10-07T12:19:33.560Z,8.40
2022-10-07T12:22:36.483Z,8.80
2022-10-07T12:25:42.111Z,9.77
2022-10-07T12:28:48.769Z,10.63
2022-10-07T12:31:50.540Z,9.75
2022-10-07T12:34:52.214Z,11.00
2022-10-07T12:38:24.799Z,9.23
2022-10-07T12:41:29.274Z,9.48
2022-10-07T12:44:38.583Z,9.65
2022-10-07T12:47:40.221Z,9.77
2022-10-07T12:50:41.828Z,8.40
2022-10-07T12:53:43.378Z,12.47
2022-10-07T12:56:44.960Z,8.32
2022-10-07T13:00:14.248Z,8.73
2022-10-07T13:03:47.806Z,8.50
2022-10-07T13:06:55.383Z,8.90
2022-10-07T13:10:03.198Z,11.20
2022-10-07T13:13:31.822Z,10.23
2022-10-07T13:16:42.393Z,9.20
2022-10-07T13:19:56.978Z,9.95
2022-10-07T13:22:58.568Z,8.90
2022-10-07T13:26:00.906Z,13.63
2022-10-07T13:29:02.502Z,8.65
2022-10-07T13:32:29.850Z,9.60
2022-10-07T13:35:36.225Z,9.70
2022-10-07T13:38:40.485Z,9.87
2022-10-07T13:41:43.478Z,10.37
2022-10-07T13:44:45.175Z,9.77
2022-10-07T13:47:49.699Z,9.23
2022-10-07T13:50:52.257Z,8.50
2022-10-07T13:53:58.782Z,8.53
2022-10-07T13:57:02.443Z,11.73
2022-10-07T14:00:04.364Z,9.63
2022-10-07T14:03:15.908Z,10.32
2022-10-07T14:06:37.665Z,9.88
2022-10-07T14:09:55.429Z,10.70
2022-10-07T14:12:58.596Z,8.20
2022-10-07T14:16:00.263Z,8.27
2022-10-07T14:19:01.827Z,9.10
2022-10-07T14:22:04.613Z,8.25
2022-10-07T14:25:15.527Z,9.40
2022-10-07T14:28:29.691Z,12.13
2022-10-07T14:31:49.954Z,12.07
2022-10-07T14:35:26.880Z,13.13
2022-10-07T14:38:29.375Z,10.05
2022-10-07T14:41:31.041Z,9.43
2022-10-07T14:44:32.591Z,8.93
2022-10-07T14:47:34.169Z,8.63
2022-10-07T14:50:35.807Z,8.98
2022-10-07T14:53:37.600Z,8.20
2022-10-07T14:56:39.193Z,10.10
2022-10-07T14:59:40.835Z,9.30
2022-10-07T15:02:42.477Z,10.35
2022-10-07T15:05:47.026Z,10.63
2022-10-07T15:08:48.762Z,9.65
2022-10-07T15:11:50.748Z,10.30
2022-10-07T15:14:52.297Z,9.37
2022-10-07T15:17:53.919Z,8.52
2022-10-07T15:20:56.858Z,11.40
2022-10-07T15:23:58.661Z,8.80
2022-10-07T15:27:00.293Z,12.40
2022-10-07T15:30:02.098Z,9.33
2022-10-07T15:33:03.745Z,9.75
2022-10-07T15:36:13.334Z,10.30
2022-10-07T15:39:14.994Z,9.35
2022-10-07T15:42:19.929Z,10.53
2022-10-07T15:45:21.517Z,11.17
2022-10-07T15:48:23.281Z,9.43
2022-10-07T15:51:25.580Z,11.07
2022-10-07T15:54:27.259Z,10.50
2022-10-07T15:57:28.855Z,11.23
2022-10-07T16:00:30.594Z,14.57
2022-10-07T16:03:40.655Z,9.70
2022-10-07T16:06:48.812Z,11.63
2022-10-07T16:09:50.395Z,11.45
2022-10-07T16:12:52.281Z,11.63
2022-10-07T16:15:58.750Z,10.77
2022-10-07T16:19:00.705Z,12.90
2022-10-07T16:22:02.329Z,16.75
2022-10-07T16:25:04.069Z,16.98
2022-10-07T16:28:24.078Z,18.83
2022-10-07T16:31:25.817Z,13.47
2022-10-07T16:34:28.323Z,13.75
2022-10-07T16:37:30.872Z,13.52
2022-10-07T16:40:32.484Z,13.30
2022-10-07T16:43:35.863Z,15.63
2022-10-07T16:46:37.582Z,11.77
2022-10-07T16:49:39.213Z,12.27
2022-10-07T16:52:40.797Z,12.30
2022-10-07T16:55:46.210Z,12.45
2022-10-07T16:58:48.193Z,15.03
2022-10-07T17:01:56.334Z,12.13
2022-10-07T17:04:58.075Z,13.80
2022-10-07T17:07:59.759Z,13.43
2022-10-07T17:11:01.542Z,11.80
2022-10-07T17:14:15.602Z,13.83
2022-10-07T17:17:18.467Z,15.10
2022-10-07T17:20:20.101Z,12.98
2022-10-07T17:23:24.513Z,12.68
2022-10-07T17:26:27.164Z,11.80
2022-10-07T17:29:30.799Z,15.57
2022-10-07T17:32:32.438Z,12.43
2022-10-07T17:35:34.292Z,11.90
2022-10-07T17:38:39.594Z,12.05
2022-10-07T17:41:41.297Z,13.32
2022-10-07T17:44:42.948Z,13.83
2022-10-07T17:47:44.756Z,14.80
2022-10-07T17:50:46.638Z,13.38
2022-10-07T17:53:50.353Z,12.00
2022-10-07T17:56:52.044Z,13.55
2022-10-07T17:59:53.612Z,12.77
2022-10-07T18:02:55.276Z,12.17
2022-10-07T18:05:56.871Z,13.07
2022-10-07T18:09:02.908Z,15.88
2022-10-07T18:12:36.916Z,12.95
2022-10-07T18:15:38.532Z,15.17
2022-10-07T18:18:41.219Z,13.67
2022-10-07T18:21:48.108Z,12.80
2022-10-07T18:24:49.920Z,15.20
2022-10-07T18:27:53.027Z,12.75
2022-10-07T18:30:54.945Z,14.30
2022-10-07T18:33:56.660Z,13.60
2022-10-07T18:36:59.107Z,14.50
2022-10-07T18:40:04.216Z,13.23
2022-10-07T18:43:05.775Z,14.23
2022-10-07T18:46:12.255Z,14.30
2022-10-07T18:49:14.000Z,15.57
2022-10-07T18:52:15.710Z,15.27
2022-10-07T18:55:17.255Z,14.77
2022-10-07T18:58:18.932Z,16.13
2022-10-07T19:01:24.513Z,13.47
2022-10-07T19:04:26.309Z,14.10
2022-10-07T19:07:28.969Z,17.27
2022-10-07T19:10:34.165Z,14.70
2022-10-07T19:13:47.886Z,14.57
2022-10-07T19:16:49.755Z,14.27
2022-10-07T19:19:51.972Z,16.50
2022-10-07T19:22:53.590Z,15.70
2022-10-07T19:25:56.876Z,16.90
2022-10-07T19:28:58.526Z,17.65
2022-10-07T19:32:05.670Z,15.73
2022-10-07T19:35:09.605Z,14.77
2022-10-07T19:38:11.396Z,14.98
2022-10-07T19:41:18.551Z,14.63
2022-10-07T19:44:20.103Z,14.93
2022-10-07T19:47:21.793Z,14.93
2022-10-07T19:50:23.821Z,15.93
2022-10-07T19:53:25.428Z,17.30
2022-10-07T19:56:29.012Z,14.13
2022-10-07T19:59:30.574Z,14.80
2022-10-07T20:02:33.571Z,15.10
2022-10-07T20:05:35.259Z,14.07
2022-10-07T20:08:42.286Z,13.45
2022-10-07T20:11:44.220Z,14.85
2022-10-07T20:14:46.513Z,15.13
2022-10-07T20:17:50.427Z,16.17
2022-10-07T20:20:52.144Z,16.37
2022-10-07T20:23:53.936Z,17.17
2022-10-07T20:26:55.603Z,22.13
2022-10-07T20:29:57.226Z,20.40
2022-10-07T20:32:58.910Z,19.13
2022-10-07T20:36:03.570Z,20.93
2022-10-07T20:39:26.167Z,21.75
2022-10-07T20:42:29.637Z,22.15
2022-10-07T20:45:51.252Z,22.65
2022-10-07T20:48:54.169Z,18.50
2022-10-07T20:51:58.537Z,21.33
2022-10-07T20:55:02.964Z,18.33
2022-10-07T20:58:05.152Z,17.58
2022-10-07T21:01:07.190Z,22.10
2022-10-07T21:04:10.161Z,19.17
2022-10-07T21:07:11.857Z,20.50
2022-10-07T21:10:13.661Z,21.85
2022-10-07T21:13:18.960Z,18.90
2022-10-07T21:16:20.972Z,18.73
2022-10-07T21:19:23.305Z,21.10
2022-10-07T21:22:25.543Z,23.47
2022-10-07T21:25:30.224Z,20.88
2022-10-07T21:28:32.800Z,19.80
2022-10-07T21:31:35.880Z,19.45
2022-10-07T21:34:38.135Z,20.93
2022-10-07T21:37:39.872Z,21.87
2022-10-07T21:40:41.562Z,19.50
2022-10-07T21:43:44.263Z,20.38
2022-10-07T21:46:46.565Z,17.52
2022-10-07T21:49:48.327Z,17.57
2022-10-07T21:52:49.927Z,18.00
2022-10-07T21:55:51.649Z,18.05
2022-10-07T21:58:53.430Z,18.15
2022-10-07T22:01:55.227Z,18.88
2022-10-07T22:04:57.113Z,18.83
2022-10-07T22:08:17.050Z,20.03
2022-10-07T22:11:19.408Z,22.23
2022-10-07T22:14:24.151Z,19.58
2022-10-07T22:17:26.729Z,21.17
2022-10-07T22:20:28.310Z,19.77
2022-10-07T22:23:30.141Z,20.97
2022-10-07T22:26:37.242Z,22.08
2022-10-07T22:29:38.819Z,22.75
2022-10-07T22:32:40.444Z,22.42
2022-10-07T22:35:42.045Z,20.43
2022-10-07T22:38:43.694Z,22.80
2022-10-07T22:41:45.373Z,22.70
2022-10-07T22:44:46.962Z,26.17
2022-10-07T22:47:49.633Z,24.70
2022-10-07T22:50:51.489Z,25.77
2022-10-07T22:53:54.427Z,27.13
2022-10-07T22:56:59.047Z,26.30
2022-10-07T23:00:00.773Z,25.05
2022-10-07T23:03:02.538Z,23.02
2022-10-07T23:06:04.507Z,23.50
2022-10-07T23:09:06.221Z,22.70
2022-10-07T23:12:07.767Z,22.95
2022-10-07T23:15:09.694Z,24.95
2022-10-07T23:18:11.267Z,23.30
2022-10-07T23:21:13.794Z,24.07
2022-10-07T23:24:15.896Z,24.77
2022-10-07T23:27:17.542Z,22.50
2022-10-07T23:30:19.094Z,24.73
2022-10-07T23:33:20.718Z,26.08
2022-10-07T23:36:22.475Z,26.50
2022-10-07T23:39:24.096Z,28.00
2022-10-07T23:42:25.704Z,25.42
2022-10-07T23:45:31.419Z,23.48
2022-10-07T23:48:35.821Z,25.88
2022-10-07T23:51:37.473Z,22.20
2022-10-07T23:54:40.080Z,23.43
2022-10-07T23:57:41.716Z,22.85
